createdAt,value
2024-01-20T00:01:44.891Z,100219.00
2024-01-20T00:04:11.970Z,100225.00
2024-01-20T00:06:39.013Z,100225.00
2024-01-20T00:09:06.071Z,100218.00
2024-01-20T00:11:32.896Z,100225.00
2024-01-20T00:13:59.758Z,100213.00
2024-01-20T00:16:26.657Z,100222.00
2024-01-20T00:18:53.571Z,100218.00
2024-01-20T00:21:20.600Z,100221.00
2024-01-20T00:23:47.545Z,100220.00
2024-01-20T00:26:14.485Z,100223.00
2024-01-20T00:28:42.764Z,100218.00
2024-01-20T00:31:10.625Z,100224.00
2024-01-20T00:33:38.500Z,100236.00
2024-01-20T00:36:05.799Z,100224.00
2024-01-20T00:38:34.142Z,100227.00
2024-01-20T00:41:01.024Z,100236.00
2024-01-20T00:43:27.826Z,100234.00
2024-01-20T00:45:54.635Z,100235.00
2024-01-20T00:48:21.541Z,100231.00
2024-01-20T00:50:48.288Z,100222.00
2024-01-20T00:53:15.116Z,100222.00
2024-01-20T00:55:41.921Z,100224.00
2024-01-20T00:58:09.307Z,100227.00
2024-01-20T01:00:36.086Z,100236.00
2024-01-20T01:03:04.125Z,100236.00
2024-01-20T01:05:31.145Z,100235.00
2024-01-20T01:07:58.110Z,100239.00
2024-01-20T01:10:24.916Z,100245.00
2024-01-20T01:12:51.677Z,100239.00
2024-01-20T01:15:18.464Z,100242.00
2024-01-20T01:17:45.264Z,100248.00
2024-01-20T01:20:12.748Z,100269.00
2024-01-20T01:22:39.540Z,100253.00
2024-01-20T01:25:06.835Z,100265.00
2024-01-20T01:27:33.634Z,100274.00
2024-01-20T01:30:00.495Z,100255.00
2024-01-20T01:32:27.436Z,100259.00
2024-01-20T01:34:54.295Z,100254.00
2024-01-20T01:37:21.073Z,100256.00
2024-01-20T01:39:48.023Z,100251.00
2024-01-20T01:42:14.814Z,100246.00
2024-01-20T01:44:41.557Z,100259.00
2024-01-20T01:47:08.505Z,100262.00
2024-01-20T01:49:35.292Z,100261.00
2024-01-20T01:52:03.655Z,100260.00
2024-01-20T01:54:30.937Z,100260.00
2024-01-20T01:57:01.166Z,100267.00
2024-01-20T01:59:32.693Z,100262.00
2024-01-20T02:01:59.419Z,100261.00
2024-01-20T02:04:26.634Z,100270.00
2024-01-20T02:06:54.001Z,100273.00
2024-01-20T02:09:21.710Z,100270.00
2024-01-20T02:11:49.537Z,100259.00
2024-01-20T02:14:16.558Z,100257.00
2024-01-20T02:16:43.284Z,100254.00
2024-01-20T02:19:10.255Z,100262.00
2024-01-20T02:21:39.076Z,100264.00
2024-01-20T02:24:10.124Z,100270.00
2024-01-20T02:26:36.940Z,100272.00
2024-01-20T02:29:03.747Z,100279.00
2024-01-20T02:31:30.529Z,100286.00
2024-01-20T02:33:57.398Z,100288.00
2024-01-20T02:36:24.261Z,100290.00
2024-01-20T02:38:51.085Z,100307.00
2024-01-20T02:41:17.866Z,100299.00
2024-01-20T02:43:44.609Z,100299.00
2024-01-20T02:46:11.363Z,100297.00
2024-01-20T02:48:38.206Z,100298.00
2024-01-20T02:51:05.459Z,100290.00
2024-01-20T02:53:32.254Z,100288.00
2024-01-20T02:55:59.072Z,100295.00
2024-01-20T02:58:25.950Z,100294.00
2024-01-20T03:00:52.730Z,100303.00
2024-01-20T03:03:19.644Z,100284.00
2024-01-20T03:05:46.616Z,100271.00
2024-01-20T03:08:13.464Z,100258.00
2024-01-20T03:10:40.243Z,100266.00
2024-01-20T03:13:07.052Z,100271.00
2024-01-20T03:15:33.941Z,100272.00
2024-01-20T03:18:00.905Z,100271.00
2024-01-20T03:20:27.723Z,100267.00
2024-01-20T03:22:54.490Z,100275.00
2024-01-20T03:25:21.233Z,100281.00
2024-01-20T03:27:47.964Z,100286.00
2024-01-20T03:30:15.130Z,100292.00
2024-01-20T03:32:42.021Z,100291.00
2024-01-20T03:35:09.115Z,100288.00
2024-01-20T03:37:35.929Z,100289.00
2024-01-20T03:40:03.588Z,100293.00
2024-01-20T03:42:30.528Z,100291.00
2024-01-20T03:44:57.456Z,100297.00
2024-01-20T03:47:24.184Z,100300.00
2024-01-20T03:49:51.067Z,100310.00
2024-01-20T03:52:17.866Z,100304.00
2024-01-20T03:54:44.623Z,100309.00
2024-01-20T03:57:11.778Z,100326.00
2024-01-20T03:59:38.594Z,100315.00
2024-01-20T04:02:05.431Z,100323.00
2024-01-20T04:04:33.076Z,100319.00
2024-01-20T04:06:59.882Z,100313.00
2024-01-20T04:09:26.727Z,100309.00
2024-01-20T04:11:53.624Z,100321.00
2024-01-20T04:14:20.336Z,100315.00
2024-01-20T04:16:47.100Z,100311.00
2024-01-20T04:19:13.969Z,100322.00
2024-01-20T04:21:40.916Z,100335.00
2024-01-20T04:24:07.831Z,100330.00
2024-01-20T04:26:34.739Z,100338.00
2024-01-20T04:29:01.999Z,100344.00
2024-01-20T04:31:28.730Z,100359.00
2024-01-20T04:33:55.533Z,100352.00
2024-01-20T04:36:22.599Z,100353.00
2024-01-20T04:38:49.472Z,100357.00
2024-01-20T04:41:16.219Z,100363.00
2024-01-20T04:43:43.250Z,100360.00
2024-01-20T04:46:10.116Z,100363.00
2024-01-20T04:48:37.007Z,100358.00
2024-01-20T04:51:04.377Z,100352.00
2024-01-20T04:53:31.139Z,100340.00
2024-01-20T04:55:57.911Z,100342.00
2024-01-20T04:58:24.642Z,100347.00
2024-01-20T05:00:51.404Z,100352.00
2024-01-20T05:03:18.211Z,100350.00
2024-01-20T05:05:45.002Z,100365.00
2024-01-20T05:08:11.795Z,100359.00
2024-01-20T05:10:38.540Z,100372.00
2024-01-20T05:13:05.739Z,100374.00
2024-01-20T05:15:32.807Z,100374.00
2024-01-20T05:17:59.960Z,100362.00
2024-01-20T05:20:26.782Z,100371.00
2024-01-20T05:22:53.552Z,100366.00
2024-01-20T05:25:20.285Z,100380.00
2024-01-20T05:27:47.534Z,100373.00
2024-01-20T05:30:14.865Z,100363.00
2024-01-20T05:32:42.798Z,100379.00
2024-01-20T05:35:09.726Z,100376.00
2024-01-20T05:37:36.492Z,100381.00
2024-01-20T05:40:06.168Z,100378.00
2024-01-20T05:42:32.971Z,100374.00
2024-01-20T05:45:00.966Z,100381.00
2024-01-20T05:47:27.904Z,100381.00
2024-01-20T05:49:54.693Z,100379.00
2024-01-20T05:52:21.467Z,100378.00
2024-01-20T05:54:48.197Z,100378.00
2024-01-20T05:57:15.031Z,100378.00
2024-01-20T05:59:41.738Z,100377.00
2024-01-20T06:02:08.859Z,100372.00
2024-01-20T06:04:35.609Z,100389.00
2024-01-20T06:07:02.357Z,100383.00
2024-01-20T06:09:29.179Z,100393.00
2024-01-20T06:11:56.030Z,100390.00
2024-01-20T06:14:22.842Z,100401.00
2024-01-20T06:16:49.633Z,100388.00
2024-01-20T06:19:17.922Z,100396.00
2024-01-20T06:21:44.855Z,100381.00
2024-01-20T06:24:13.105Z,100386.00
2024-01-20T06:26:39.850Z,100392.00
2024-01-20T06:29:06.669Z,100389.00
2024-01-20T06:31:33.421Z,100395.00
2024-01-20T06:34:00.353Z,100394.00
2024-01-20T06:36:27.338Z,100397.00
2024-01-20T06:38:54.786Z,100401.00
2024-01-20T06:41:21.496Z,100397.00
2024-01-20T06:43:48.282Z,100407.00
2024-01-20T06:46:15.197Z,100414.00
2024-01-20T06:48:42.071Z,100413.00
2024-01-20T06:51:16.126Z,100413.00
2024-01-20T06:53:46.301Z,100410.00
2024-01-20T06:56:13.090Z,100412.00
2024-01-20T06:58:40.245Z,100429.00
2024-01-20T07:01:07.102Z,100425.00
2024-01-20T07:03:34.037Z,100432.00
2024-01-20T07:06:01.525Z,100440.00
2024-01-20T07:08:28.406Z,100439.00
2024-01-20T07:10:55.256Z,100454.00
2024-01-20T07:13:21.989Z,100450.00
2024-01-20T07:15:49.173Z,100448.00
2024-01-20T07:18:16.093Z,100447.00
2024-01-20T07:20:42.977Z,100456.00
2024-01-20T07:23:09.687Z,100468.00
2024-01-20T07:25:37.880Z,100458.00
2024-01-20T07:28:07.376Z,100471.00
2024-01-20T07:30:35.229Z,100472.00
2024-01-20T07:33:02.149Z,100469.00
2024-01-20T07:35:28.961Z,100477.00
2024-01-20T07:37:55.760Z,100483.00
2024-01-20T07:40:22.565Z,100481.00
2024-01-20T07:42:49.358Z,100491.00
2024-01-20T07:45:16.356Z,100499.00
2024-01-20T07:47:43.118Z,100497.00
2024-01-20T07:50:10.062Z,100504.00
2024-01-20T07:52:40.484Z,100509.00
2024-01-20T07:55:08.145Z,100517.00
2024-01-20T07:57:35.011Z,100511.00
2024-01-20T08:00:02.073Z,100508.00
2024-01-20T08:02:28.938Z,100496.00
2024-01-20T08:04:55.699Z,100492.00
2024-01-20T08:07:22.446Z,100496.00
2024-01-20T08:09:49.405Z,100502.00
2024-01-20T08:12:16.135Z,100508.00
2024-01-20T08:14:42.984Z,100504.00
2024-01-20T08:17:09.826Z,100516.00
2024-01-20T08:19:36.644Z,100505.00
2024-01-20T08:22:04.425Z,100503.00
2024-01-20T08:24:31.692Z,100500.00
2024-01-20T08:26:58.484Z,100510.00
2024-01-20T08:29:25.351Z,100509.00
2024-01-20T08:31:52.144Z,100510.00
2024-01-20T08:34:19.607Z,100517.00
2024-01-20T08:36:46.361Z,100522.00
2024-01-20T08:39:13.241Z,100525.00
2024-01-20T08:41:40.316Z,100538.00
2024-01-20T08:44:07.127Z,100534.00
2024-01-20T08:46:33.978Z,100556.00
2024-01-20T08:49:00.705Z,100565.00
2024-01-20T08:51:27.465Z,100572.00
2024-01-20T08:53:54.297Z,100566.00
2024-01-20T08:56:21.050Z,100576.00
2024-01-20T08:58:47.798Z,100570.00
2024-01-20T09:01:14.729Z,100573.00
2024-01-20T09:03:41.643Z,100565.00
2024-01-20T09:06:08.871Z,100568.00
2024-01-20T09:08:35.690Z,100582.00
2024-01-20T09:11:02.953Z,100582.00
2024-01-20T09:13:29.815Z,100568.00
2024-01-20T09:15:56.773Z,100556.00
2024-01-20T09:18:25.012Z,100547.00
2024-01-20T09:20:51.965Z,100549.00
2024-01-20T09:23:18.691Z,100552.00
2024-01-20T09:25:45.893Z,100540.00
2024-01-20T09:28:12.679Z,100547.00
2024-01-20T09:30:40.438Z,100543.00
2024-01-20T09:33:07.558Z,100544.00
2024-01-20T09:35:34.383Z,100546.00
2024-01-20T09:38:01.171Z,100537.00
2024-01-20T09:40:30.100Z,100534.00
2024-01-20T09:42:57.216Z,100533.00
2024-01-20T09:45:24.361Z,100529.00
2024-01-20T09:47:51.512Z,100534.00
2024-01-20T09:50:18.445Z,100538.00
2024-01-20T09:53:04.167Z,100545.00
2024-01-20T09:55:30.922Z,100540.00
2024-01-20T09:57:59.714Z,100560.00
2024-01-20T10:00:27.193Z,100555.00
2024-01-20T10:02:55.168Z,100568.00
2024-01-20T10:05:25.777Z,100570.00
2024-01-20T10:07:52.651Z,100569.00
2024-01-20T10:10:21.601Z,100569.00
2024-01-20T10:12:52.813Z,100568.00
2024-01-20T10:15:30.998Z,100571.00
2024-01-20T10:18:01.179Z,100568.00
2024-01-20T10:20:35.007Z,100568.00
2024-01-20T10:23:05.056Z,100583.00
2024-01-20T10:25:32.166Z,100573.00
2024-01-20T10:27:59.969Z,100567.00
2024-01-20T10:30:27.257Z,100580.00
2024-01-20T10:33:04.354Z,100578.00
2024-01-20T10:35:36.484Z,100566.00
2024-01-20T10:38:10.472Z,100569.00
2024-01-20T10:40:41.550Z,100586.00
2024-01-20T10:43:15.609Z,100582.00
2024-01-20T10:45:59.294Z,100587.00
2024-01-20T10:48:35.090Z,100581.00
2024-01-20T10:51:09.930Z,100572.00
2024-01-20T10:53:37.841Z,100580.00
2024-01-20T10:56:08.317Z,100586.00
2024-01-20T10:58:43.743Z,100573.00
2024-01-20T11:01:12.820Z,100563.00
2024-01-20T11:03:40.445Z,100561.00
2024-01-20T11:06:07.525Z,100555.00
2024-01-20T11:08:34.340Z,100546.00
2024-01-20T11:11:01.365Z,100539.00
2024-01-20T11:13:28.411Z,100535.00
2024-01-20T11:15:56.836Z,100538.00
2024-01-20T11:18:25.070Z,100534.00
2024-01-20T11:21:01.185Z,100526.00
2024-01-20T11:23:28.833Z,100514.00
2024-01-20T11:25:56.902Z,100514.00
2024-01-20T11:28:47.012Z,100519.00
2024-01-20T11:31:21.093Z,100502.00
2024-01-20T11:33:48.856Z,100512.00
2024-01-20T11:36:17.457Z,100488.00
2024-01-20T11:38:46.146Z,100476.00
2024-01-20T11:41:16.774Z,100476.00
2024-01-20T11:43:47.381Z,100468.00
2024-01-20T11:46:15.209Z,100456.00
2024-01-20T11:48:43.531Z,100462.00
2024-01-20T11:51:11.262Z,100459.00
2024-01-20T11:53:39.250Z,100456.00
2024-01-20T11:56:06.512Z,100451.00
2024-01-20T11:58:33.795Z,100446.00
2024-01-20T12:01:01.002Z,100434.00
2024-01-20T12:03:28.361Z,100447.00
2024-01-20T12:05:55.984Z,100454.00
2024-01-20T12:08:23.052Z,100457.00
2024-01-20T12:10:51.896Z,100463.00
2024-01-20T12:13:18.768Z,100460.00
2024-01-20T12:15:49.099Z,100463.00
2024-01-20T12:18:18.444Z,100464.00
2024-01-20T12:20:46.014Z,100470.00
2024-01-20T12:23:20.122Z,100469.00
2024-01-20T12:25:51.871Z,100458.00
2024-01-20T12:28:18.618Z,100460.00
2024-01-20T12:30:45.540Z,100459.00
2024-01-20T12:33:12.421Z,100452.00
2024-01-20T12:35:39.266Z,100443.00
2024-01-20T12:38:06.485Z,100440.00
2024-01-20T12:40:33.468Z,100438.00
2024-01-20T12:43:01.848Z,100433.00
2024-01-20T12:45:28.729Z,100425.00
2024-01-20T12:47:55.612Z,100414.00
2024-01-20T12:50:22.424Z,100423.00
2024-01-20T12:52:50.908Z,100407.00
2024-01-20T12:55:17.828Z,100417.00
2024-01-20T12:57:44.627Z,100413.00
2024-01-20T13:00:12.329Z,100413.00
2024-01-20T13:02:39.100Z,100417.00
2024-01-20T13:05:06.611Z,100406.00
2024-01-20T13:07:33.416Z,100408.00
2024-01-20T13:10:00.186Z,100412.00
2024-01-20T13:12:27.029Z,100389.00
2024-01-20T13:14:53.831Z,100385.00
2024-01-20T13:17:20.696Z,100384.00
2024-01-20T13:19:50.291Z,100381.00
2024-01-20T13:22:17.680Z,100386.00
2024-01-20T13:24:44.543Z,100383.00
2024-01-20T13:27:11.355Z,100379.00
2024-01-20T13:29:38.115Z,100381.00
2024-01-20T13:32:05.304Z,100380.00
2024-01-20T13:34:34.569Z,100387.00
2024-01-20T13:37:01.480Z,100376.00
2024-01-20T13:39:28.247Z,100387.00
2024-01-20T13:41:54.966Z,100401.00
2024-01-20T13:44:21.664Z,100383.00
2024-01-20T13:46:48.411Z,100384.00
2024-01-20T13:49:15.271Z,100387.00
2024-01-20T13:51:42.147Z,100374.00
2024-01-20T13:54:08.989Z,100366.00
2024-01-20T13:56:35.867Z,100366.00
2024-01-20T13:59:03.642Z,100366.00
2024-01-20T14:01:30.663Z,100376.00
2024-01-20T14:03:57.958Z,100365.00
2024-01-20T14:06:25.791Z,100369.00
2024-01-20T14:08:53.218Z,100366.00
2024-01-20T14:11:20.006Z,100360.00
2024-01-20T14:13:46.917Z,100355.00
2024-01-20T14:16:13.848Z,100350.00
2024-01-20T14:18:40.846Z,100343.00
2024-01-20T14:21:07.649Z,100334.00
2024-01-20T14:23:34.368Z,100340.00
2024-01-20T14:26:01.590Z,100339.00
2024-01-20T14:28:28.832Z,100337.00
2024-01-20T14:30:55.683Z,100335.00
2024-01-20T14:33:29.182Z,100335.00
2024-01-20T14:35:55.996Z,100333.00
2024-01-20T14:38:22.694Z,100336.00
2024-01-20T14:40:49.476Z,100323.00
2024-01-20T14:43:16.240Z,100325.00
2024-01-20T14:45:43.306Z,100339.00
2024-01-20T14:48:10.324Z,100333.00
2024-01-20T14:50:37.093Z,100325.00
2024-01-20T14:53:04.274Z,100335.00
2024-01-20T14:55:32.028Z,100326.00
2024-01-20T14:57:59.390Z,100348.00
2024-01-20T15:00:26.347Z,100342.00
2024-01-20T15:02:53.354Z,100353.00
2024-01-20T15:05:20.290Z,100360.00
2024-01-20T15:07:47.093Z,100356.00
2024-01-20T15:10:13.992Z,100374.00
2024-01-20T15:12:40.951Z,100373.00
2024-01-20T15:15:08.341Z,100375.00
2024-01-20T15:17:35.173Z,100372.00
2024-01-20T15:20:02.086Z,100387.00
2024-01-20T15:22:28.910Z,100382.00
2024-01-20T15:24:55.710Z,100380.00
2024-01-20T15:27:22.478Z,100388.00
2024-01-20T15:29:49.450Z,100396.00
2024-01-20T15:32:16.216Z,100395.00
2024-01-20T15:34:43.055Z,100397.00
2024-01-20T15:37:09.879Z,100413.00
2024-01-20T15:39:36.750Z,100412.00
2024-01-20T15:42:03.815Z,100413.00
2024-01-20T15:44:30.513Z,100419.00
2024-01-20T15:46:57.269Z,100409.00
2024-01-20T15:49:24.349Z,100419.00
2024-01-20T15:51:51.466Z,100429.00
2024-01-20T15:54:18.600Z,100430.00
2024-01-20T15:56:45.509Z,100439.00
2024-01-20T15:59:12.308Z,100428.00
2024-01-20T16:01:39.188Z,100444.00
2024-01-20T16:04:06.126Z,100432.00
2024-01-20T16:06:33.286Z,100434.00
2024-01-20T16:09:00.243Z,100431.00
2024-01-20T16:11:27.165Z,100437.00
2024-01-20T16:13:53.916Z,100433.00
2024-01-20T16:16:20.687Z,100445.00
2024-01-20T16:18:47.661Z,100445.00
2024-01-20T16:21:25.326Z,100448.00
2024-01-20T16:23:52.907Z,100443.00
2024-01-20T16:26:21.813Z,100435.00
2024-01-20T16:28:49.832Z,100439.00
2024-01-20T16:31:17.902Z,100438.00
2024-01-20T16:33:46.379Z,100447.00
2024-01-20T16:36:19.590Z,100443.00
2024-01-20T16:38:46.508Z,100441.00
2024-01-20T16:41:13.542Z,100444.00
2024-01-20T16:43:40.377Z,100439.00
2024-01-20T16:46:07.646Z,100448.00
2024-01-20T16:48:34.696Z,100459.00
2024-01-20T16:51:01.846Z,100452.00
2024-01-20T16:53:28.757Z,100448.00
2024-01-20T16:55:55.764Z,100449.00
2024-01-20T16:58:22.569Z,100457.00
2024-01-20T17:00:49.490Z,100454.00
2024-01-20T17:03:16.316Z,100449.00
2024-01-20T17:05:43.162Z,100443.00
2024-01-20T17:08:10.007Z,100437.00
2024-01-20T17:10:36.744Z,100444.00
2024-01-20T17:13:03.713Z,100448.00
2024-01-20T17:15:30.897Z,100428.00
2024-01-20T17:17:57.687Z,100427.00
2024-01-20T17:20:24.447Z,100416.00
2024-01-20T17:22:51.271Z,100422.00
2024-01-20T17:25:18.156Z,100422.00
2024-01-20T17:27:45.188Z,100436.00
2024-01-20T17:30:12.357Z,100433.00
2024-01-20T17:32:39.825Z,100435.00
2024-01-20T17:35:09.157Z,100440.00
2024-01-20T17:37:36.699Z,100441.00
2024-01-20T17:40:07.323Z,100443.00
2024-01-20T17:42:34.017Z,100451.00
2024-01-20T17:45:00.907Z,100445.00
2024-01-20T17:47:29.032Z,100453.00
2024-01-20T17:49:56.793Z,100450.00
2024-01-20T17:52:24.567Z,100461.00
2024-01-20T17:54:51.429Z,100451.00
2024-01-20T17:57:18.445Z,100457.00
2024-01-20T17:59:52.367Z,100464.00
2024-01-20T18:02:22.156Z,100456.00
2024-01-20T18:04:51.862Z,100454.00
2024-01-20T18:07:39.949Z,100458.00
2024-01-20T18:10:07.535Z,100465.00
2024-01-20T18:12:34.303Z,100463.00
2024-01-20T18:15:01.141Z,100445.00
2024-01-20T18:17:27.891Z,100449.00
2024-01-20T18:19:56.790Z,100451.00
2024-01-20T18:22:24.833Z,100458.00
2024-01-20T18:24:52.073Z,100452.00
2024-01-20T18:27:18.835Z,100446.00
2024-01-20T18:29:45.618Z,100452.00
2024-01-20T18:32:12.345Z,100452.00
2024-01-20T18:34:39.536Z,100434.00
2024-01-20T18:37:06.328Z,100428.00
2024-01-20T18:39:34.517Z,100425.00
2024-01-20T18:42:01.362Z,100431.00
2024-01-20T18:44:28.169Z,100423.00
2024-01-20T18:46:54.970Z,100432.00
2024-01-20T18:49:21.969Z,100426.00
2024-01-20T18:51:48.815Z,100420.00
2024-01-20T18:54:15.573Z,100416.00
2024-01-20T18:56:42.330Z,100421.00
2024-01-20T18:59:09.629Z,100412.00
2024-01-20T19:01:40.109Z,100416.00
2024-01-20T19:04:07.001Z,100417.00
2024-01-20T19:06:34.074Z,100410.00
2024-01-20T19:09:00.930Z,100421.00
2024-01-20T19:11:27.666Z,100413.00
2024-01-20T19:13:57.246Z,100420.00
2024-01-20T19:16:25.381Z,100424.00
2024-01-20T19:18:52.193Z,100414.00
2024-01-20T19:21:19.007Z,100425.00
2024-01-20T19:23:45.982Z,100411.00
2024-01-20T19:26:13.297Z,100421.00
2024-01-20T19:28:40.087Z,100438.00
2024-01-20T19:31:07.600Z,100447.00
2024-01-20T19:33:34.558Z,100438.00
2024-01-20T19:36:01.581Z,100435.00
2024-01-20T19:38:28.314Z,100414.00
2024-01-20T19:40:55.643Z,100419.00
2024-01-20T19:43:22.445Z,100413.00
2024-01-20T19:45:49.319Z,100428.00
2024-01-20T19:48:16.202Z,100429.00
2024-01-20T19:50:43.534Z,100445.00
2024-01-20T19:53:10.292Z,100440.00
2024-01-20T19:55:37.058Z,100437.00
2024-01-20T19:58:04.083Z,100449.00
2024-01-20T20:00:30.898Z,100437.00
2024-01-20T20:03:00.223Z,100437.00
2024-01-20T20:05:27.104Z,100426.00
2024-01-20T20:07:53.972Z,100427.00
2024-01-20T20:10:21.012Z,100431.00
2024-01-20T20:12:48.975Z,100431.00
2024-01-20T20:15:15.892Z,100424.00
2024-01-20T20:17:44.190Z,100421.00
2024-01-20T20:20:12.183Z,100415.00
2024-01-20T20:22:39.396Z,100412.00
2024-01-20T20:25:06.398Z,100397.00
2024-01-20T20:27:33.256Z,100409.00
2024-01-20T20:30:00.229Z,100418.00
2024-01-20T20:32:27.493Z,100424.00
2024-01-20T20:34:54.337Z,100421.00
2024-01-20T20:37:21.417Z,100427.00
2024-01-20T20:39:49.762Z,100424.00
2024-01-20T20:42:17.482Z,100428.00
2024-01-20T20:44:44.519Z,100429.00
2024-01-20T20:47:11.621Z,100413.00
2024-01-20T20:49:38.413Z,100411.00
2024-01-20T20:52:06.823Z,100410.00
2024-01-20T20:54:33.637Z,100415.00
2024-01-20T20:57:00.364Z,100408.00
2024-01-20T20:59:27.146Z,100404.00
2024-01-20T21:01:53.842Z,100403.00
2024-01-20T21:04:20.638Z,100410.00
2024-01-20T21:06:47.558Z,100410.00
2024-01-20T21:09:16.662Z,100407.00
2024-01-20T21:11:43.520Z,100401.00
2024-01-20T21:14:10.277Z,100393.00
2024-01-20T21:16:37.083Z,100404.00
2024-01-20T21:19:04.091Z,100395.00
2024-01-20T21:21:30.926Z,100400.00
2024-01-20T21:23:57.683Z,100394.00
2024-01-20T21:26:24.911Z,100379.00
2024-01-20T21:28:51.765Z,100376.00
2024-01-20T21:31:18.856Z,100367.00
2024-01-20T21:33:45.898Z,100379.00
2024-01-20T21:36:13.675Z,100380.00
2024-01-20T21:38:41.690Z,100382.00
2024-01-20T21:41:08.690Z,100365.00
2024-01-20T21:43:35.530Z,100375.00
2024-01-20T21:46:02.444Z,100383.00
2024-01-20T21:48:29.319Z,100390.00
2024-01-20T21:50:57.566Z,100387.00
2024-01-20T21:53:25.162Z,100389.00
2024-01-20T21:55:51.985Z,100404.00
2024-01-20T21:58:18.743Z,100417.00
2024-01-20T22:00:46.592Z,100414.00
2024-01-20T22:03:13.681Z,100400.00
2024-01-20T22:05:40.530Z,100400.00
2024-01-20T22:08:07.714Z,100409.00
2024-01-20T22:10:34.553Z,100402.00
2024-01-20T22:13:01.446Z,100393.00
2024-01-20T22:15:29.177Z,100391.00
2024-01-20T22:17:56.242Z,100395.00
2024-01-20T22:20:23.986Z,100390.00
2024-01-20T22:22:50.762Z,100390.00
2024-01-20T22:25:17.674Z,100390.00
2024-01-20T22:27:45.351Z,100371.00
2024-01-20T22:30:12.926Z,100368.00
2024-01-20T22:32:42.814Z,100366.00
2024-01-20T22:35:09.741Z,100369.00
2024-01-20T22:37:36.736Z,100360.00
2024-01-20T22:40:04.989Z,100364.00
2024-01-20T22:42:31.822Z,100364.00
2024-01-20T22:44:58.678Z,100366.00
2024-01-20T22:47:25.676Z,100358.00
2024-01-20T22:49:52.487Z,100373.00
2024-01-20T22:52:19.281Z,100380.00
2024-01-20T22:54:46.198Z,100365.00
2024-01-20T22:57:13.139Z,100367.00
2024-01-20T22:59:39.966Z,100362.00
2024-01-20T23:02:06.958Z,100366.00
2024-01-20T23:04:33.998Z,100361.00
2024-01-20T23:07:01.010Z,100379.00
2024-01-20T23:09:27.935Z,100374.00
2024-01-20T23:11:55.278Z,100365.00
2024-01-20T23:14:22.261Z,100356.00
2024-01-20T23:16:49.182Z,100375.00
2024-01-20T23:19:16.077Z,100368.00
2024-01-20T23:21:43.815Z,100376.00
2024-01-20T23:24:10.576Z,100354.00
2024-01-20T23:26:42.916Z,100347.00
2024-01-20T23:29:09.822Z,100340.00
2024-01-20T23:31:36.681Z,100335.00
2024-01-20T23:34:04.588Z,100338.00
2024-01-20T23:36:31.704Z,100332.00
2024-01-20T23:38:58.693Z,100347.00
2024-01-20T23:41:25.474Z,100341.00
2024-01-20T23:43:52.185Z,100344.00
2024-01-20T23:46:18.908Z,100335.00
2024-01-20T23:48:45.734Z,100343.00
2024-01-20T23:51:14.234Z,100345.00
2024-01-20T23:53:41.041Z,100347.00
2024-01-20T23:56:07.908Z,100342.00
2024-01-20T23:58:34.680Z,100347.00
